createdAt,value
2019-05-19T00:00:22.815Z,77.74
2019-05-19T00:02:52.432Z,77.82
2019-05-19T00:05:21.985Z,77.86
2019-05-19T00:07:52.123Z,77.97
2019-05-19T00:10:22.037Z,77.97
2019-05-19T00:12:51.550Z,78.13
2019-05-19T00:15:22.665Z,78.31
2019-05-19T00:17:52.183Z,78.55
2019-05-19T00:20:21.756Z,78.54
2019-05-19T00:22:52.191Z,78.72
2019-05-19T00:25:22.375Z,78.70
2019-05-19T00:27:51.814Z,78.81
2019-05-19T00:30:22.251Z,79.02
2019-05-19T00:32:51.838Z,78.89
2019-05-19T00:35:21.798Z,78.96
2019-05-19T00:37:51.547Z,78.98
2019-05-19T00:40:21.038Z,79.41
2019-05-19T00:42:50.551Z,79.24
2019-05-19T00:45:20.158Z,79.35
2019-05-19T00:47:49.720Z,79.43
2019-05-19T00:50:19.914Z,79.47
2019-05-19T00:52:49.431Z,79.55
2019-05-19T00:55:18.920Z,79.66
2019-05-19T00:57:50.600Z,79.70
2019-05-19T01:00:21.521Z,79.72
2019-05-19T01:02:51.400Z,79.83
2019-05-19T01:05:21.028Z,79.91
2019-05-19T01:07:50.486Z,79.93
2019-05-19T01:10:20.500Z,80.04
2019-05-19T01:12:50.013Z,80.14
2019-05-19T01:15:20.250Z,80.17
2019-05-19T01:17:49.819Z,80.31
2019-05-19T01:20:19.610Z,80.44
2019-05-19T01:22:49.176Z,80.45
2019-05-19T01:25:18.866Z,80.47
2019-05-19T01:27:48.785Z,80.52
2019-05-19T01:30:18.408Z,80.55
2019-05-19T01:32:47.890Z,80.56
2019-05-19T01:35:17.382Z,80.66
2019-05-19T01:37:50.808Z,80.68
2019-05-19T01:40:20.764Z,80.59
2019-05-19T01:42:50.270Z,80.51
2019-05-19T01:45:20.761Z,80.60
2019-05-19T01:47:50.258Z,80.72
2019-05-19T01:50:19.810Z,80.79
2019-05-19T01:52:49.635Z,80.85
2019-05-19T01:55:19.550Z,80.81
2019-05-19T01:57:49.365Z,80.88
2019-05-19T02:00:19.218Z,80.89
2019-05-19T02:02:48.657Z,80.91
2019-05-19T02:05:18.499Z,80.93
2019-05-19T02:07:48.028Z,80.91
2019-05-19T02:10:17.647Z,80.91
2019-05-19T02:12:47.099Z,81.06
2019-05-19T02:15:16.835Z,81.07
2019-05-19T02:17:46.353Z,81.10
2019-05-19T02:20:16.383Z,81.18
2019-05-19T02:22:45.889Z,81.27
2019-05-19T02:25:16.980Z,81.40
2019-05-19T02:27:46.500Z,81.41
2019-05-19T02:30:16.130Z,81.44
2019-05-19T02:32:45.593Z,81.58
2019-05-19T02:35:15.243Z,81.66
2019-05-19T02:37:44.719Z,81.74
2019-05-19T02:40:14.865Z,81.80
2019-05-19T02:42:46.852Z,81.86
2019-05-19T02:45:16.703Z,81.83
2019-05-19T02:47:48.948Z,81.85
2019-05-19T02:50:20.061Z,81.89
2019-05-19T02:52:51.810Z,81.86
2019-05-19T02:55:22.035Z,81.92
2019-05-19T02:57:53.216Z,82.06
2019-05-19T03:00:37.336Z,81.97
2019-05-19T03:03:07.854Z,81.99
2019-05-19T03:05:39.428Z,81.98
2019-05-19T03:08:08.952Z,82.01
2019-05-19T03:10:38.439Z,82.13
2019-05-19T03:13:07.961Z,82.22
2019-05-19T03:15:38.431Z,82.28
2019-05-19T03:18:07.896Z,82.29
2019-05-19T03:20:37.406Z,82.27
2019-05-19T03:23:07.196Z,82.28
2019-05-19T03:25:37.011Z,82.31
2019-05-19T03:28:06.543Z,82.30
2019-05-19T03:30:53.837Z,82.31
2019-05-19T03:33:24.948Z,82.26
2019-05-19T03:35:54.448Z,82.22
2019-05-19T03:38:23.898Z,82.26
2019-05-19T03:40:53.405Z,82.23
2019-05-19T03:43:22.905Z,82.26
2019-05-19T03:45:52.387Z,82.39
2019-05-19T03:48:21.873Z,82.44
2019-05-19T03:50:51.335Z,82.39
2019-05-19T03:53:20.843Z,82.29
2019-05-19T03:55:50.345Z,82.21
2019-05-19T03:58:20.024Z,82.17
2019-05-19T04:00:49.523Z,82.09
2019-05-19T04:03:19.033Z,82.21
2019-05-19T04:05:49.689Z,82.03
2019-05-19T04:08:19.163Z,81.97
2019-05-19T04:10:48.625Z,81.87
2019-05-19T04:13:18.184Z,81.66
2019-05-19T04:15:48.132Z,81.58
2019-05-19T04:18:17.763Z,81.41
2019-05-19T04:20:47.246Z,81.28
2019-05-19T04:23:17.063Z,81.21
2019-05-19T04:25:46.559Z,81.08
2019-05-19T04:28:16.066Z,80.82
2019-05-19T04:30:45.535Z,80.78
2019-05-19T04:33:15.111Z,80.74
2019-05-19T04:35:44.604Z,80.64
2019-05-19T04:38:14.413Z,80.40
2019-05-19T04:40:44.168Z,80.08
2019-05-19T04:43:13.626Z,79.76
2019-05-19T04:45:43.133Z,79.46
2019-05-19T04:48:12.638Z,79.17
2019-05-19T04:50:42.145Z,78.83
2019-05-19T04:53:11.750Z,78.46
2019-05-19T04:55:41.236Z,77.80
2019-05-19T04:58:10.742Z,77.15
2019-05-19T05:00:41.306Z,76.92
2019-05-19T05:03:11.894Z,76.56
2019-05-19T05:05:41.356Z,76.17
2019-05-19T05:08:27.775Z,75.90
2019-05-19T05:10:42.110Z,75.43
2019-05-19T05:13:12.021Z,75.02
2019-05-19T05:15:41.480Z,74.51
2019-05-19T05:18:11.032Z,73.91
2019-05-19T05:20:40.537Z,73.38
2019-05-19T05:23:10.040Z,73.20
2019-05-19T05:25:39.545Z,72.82
2019-05-19T05:28:09.007Z,72.56
2019-05-19T05:30:38.509Z,71.50
2019-05-19T05:33:08.014Z,71.89
2019-05-19T05:35:37.481Z,71.70
2019-05-19T05:38:06.968Z,71.38
2019-05-19T05:40:36.715Z,71.19
2019-05-19T05:43:06.235Z,71.03
2019-05-19T05:45:36.215Z,70.43
2019-05-19T05:48:05.704Z,70.52
2019-05-19T05:50:35.552Z,70.49
2019-05-19T05:53:05.063Z,70.48
2019-05-19T05:55:34.900Z,70.22
2019-05-19T05:58:04.530Z,69.81
2019-05-19T06:00:34.013Z,68.77
2019-05-19T06:03:03.559Z,67.10
2019-05-19T06:05:33.032Z,67.46
2019-05-19T06:08:02.657Z,67.34
2019-05-19T06:10:32.120Z,66.15
2019-05-19T06:13:01.709Z,66.30
2019-05-19T06:15:31.227Z,66.26
2019-05-19T06:18:00.760Z,66.34
2019-05-19T06:20:31.591Z,66.11
2019-05-19T06:23:01.078Z,66.16
2019-05-19T06:25:30.710Z,66.06
2019-05-19T06:28:00.206Z,66.07
2019-05-19T06:30:30.085Z,65.71
2019-05-19T06:33:01.848Z,65.82
2019-05-19T06:35:31.320Z,65.05
2019-05-19T06:38:00.761Z,65.45
2019-05-19T06:40:30.272Z,65.03
2019-05-19T06:42:59.737Z,64.67
2019-05-19T06:45:29.245Z,64.57
2019-05-19T06:47:58.758Z,63.87
2019-05-19T06:50:28.367Z,63.71
2019-05-19T06:53:12.864Z,63.29
2019-05-19T06:55:29.176Z,62.61
2019-05-19T06:57:58.729Z,62.47
2019-05-19T07:00:28.274Z,62.26
2019-05-19T07:02:59.205Z,61.67
2019-05-19T07:05:28.687Z,61.57
2019-05-19T07:07:58.138Z,61.73
2019-05-19T07:10:28.043Z,61.46
2019-05-19T07:12:57.612Z,60.07
2019-05-19T07:15:27.116Z,59.59
2019-05-19T07:17:56.563Z,58.37
2019-05-19T07:20:26.107Z,58.49
2019-05-19T07:22:55.878Z,56.97
2019-05-19T07:25:25.544Z,58.18
2019-05-19T07:27:55.027Z,57.25
2019-05-19T07:30:24.778Z,58.09
2019-05-19T07:32:54.295Z,57.53
2019-05-19T07:35:24.120Z,57.61
2019-05-19T07:37:53.575Z,57.52
2019-05-19T07:40:23.107Z,57.18
2019-05-19T07:42:52.723Z,56.29
2019-05-19T07:45:22.869Z,56.09
2019-05-19T07:47:52.538Z,56.18
2019-05-19T07:50:22.391Z,55.99
2019-05-19T07:52:52.216Z,55.91
2019-05-19T07:55:21.805Z,55.01
2019-05-19T07:57:51.498Z,55.37
2019-05-19T08:00:21.122Z,54.79
2019-05-19T08:02:50.583Z,54.83
2019-05-19T08:05:20.246Z,54.35
2019-05-19T08:07:49.742Z,54.95
2019-05-19T08:10:19.322Z,54.64
2019-05-19T08:12:48.800Z,53.95
2019-05-19T08:15:19.096Z,53.95
2019-05-19T08:17:48.674Z,53.78
2019-05-19T08:20:18.268Z,53.24
2019-05-19T08:22:51.056Z,53.37
2019-05-19T08:25:19.405Z,54.09
2019-05-19T08:27:49.039Z,52.57
2019-05-19T08:30:18.842Z,51.91
2019-05-19T08:32:48.349Z,52.54
2019-05-19T08:35:17.972Z,52.92
2019-05-19T08:37:47.833Z,52.55
2019-05-19T08:40:17.492Z,52.91
2019-05-19T08:42:46.987Z,53.06
2019-05-19T08:45:16.614Z,52.83
2019-05-19T08:47:46.470Z,51.96
2019-05-19T08:50:16.191Z,51.80
2019-05-19T08:52:45.739Z,51.33
2019-05-19T08:55:15.751Z,52.12
2019-05-19T08:57:45.205Z,51.57
2019-05-19T09:00:15.592Z,51.87
2019-05-19T09:02:45.265Z,51.59
2019-05-19T09:05:14.933Z,51.79
2019-05-19T09:07:44.456Z,52.11
2019-05-19T09:10:14.151Z,51.67
2019-05-19T09:12:43.652Z,51.25
2019-05-19T09:15:13.489Z,50.56
2019-05-19T09:17:43.165Z,49.15
2019-05-19T09:20:13.354Z,47.06
2019-05-19T09:22:42.864Z,47.19
2019-05-19T09:25:12.550Z,46.57
2019-05-19T09:27:42.480Z,46.82
2019-05-19T09:30:12.499Z,46.85
2019-05-19T09:32:42.399Z,46.75
2019-05-19T09:35:12.936Z,46.50
2019-05-19T09:37:42.509Z,45.67
2019-05-19T09:40:13.013Z,44.89
2019-05-19T09:42:42.685Z,45.22
2019-05-19T09:45:14.259Z,44.54
2019-05-19T09:47:43.934Z,45.33
2019-05-19T09:50:14.086Z,44.49
2019-05-19T09:52:44.496Z,44.26
2019-05-19T09:55:16.151Z,45.11
2019-05-19T09:57:45.802Z,44.52
2019-05-19T10:00:15.944Z,44.38
2019-05-19T10:02:46.116Z,44.18
2019-05-19T10:05:16.360Z,43.28
2019-05-19T10:07:46.355Z,43.81
2019-05-19T10:10:18.132Z,43.40
2019-05-19T10:12:47.905Z,43.16
2019-05-19T10:15:17.630Z,42.79
2019-05-19T10:17:47.546Z,42.52
2019-05-19T10:20:17.831Z,42.89
2019-05-19T10:22:47.672Z,43.32
2019-05-19T10:25:22.657Z,42.99
2019-05-19T10:27:50.299Z,43.39
2019-05-19T10:30:20.243Z,42.72
2019-05-19T10:32:49.995Z,42.24
2019-05-19T10:35:19.590Z,42.26
2019-05-19T10:37:49.274Z,42.72
2019-05-19T10:40:18.923Z,42.55
2019-05-19T10:42:48.605Z,42.67
2019-05-19T10:45:18.734Z,42.59
2019-05-19T10:47:48.274Z,42.21
2019-05-19T10:50:18.321Z,42.36
2019-05-19T10:52:48.305Z,42.58
2019-05-19T10:55:18.853Z,42.19
2019-05-19T10:57:48.327Z,42.11
2019-05-19T11:00:18.108Z,41.75
2019-05-19T11:02:47.667Z,41.56
2019-05-19T11:05:19.555Z,41.44
2019-05-19T11:07:49.358Z,42.06
2019-05-19T11:10:19.223Z,40.11
2019-05-19T11:12:48.730Z,39.74
2019-05-19T11:15:18.569Z,38.97
2019-05-19T11:17:48.077Z,39.27
2019-05-19T11:20:17.809Z,39.02
2019-05-19T11:22:47.440Z,38.87
2019-05-19T11:25:32.676Z,38.80
2019-05-19T11:27:50.759Z,39.14
2019-05-19T11:30:21.326Z,38.91
2019-05-19T11:32:51.196Z,39.68
2019-05-19T11:35:20.810Z,39.05
2019-05-19T11:37:50.430Z,38.74
2019-05-19T11:40:19.921Z,39.75
2019-05-19T11:42:50.444Z,39.64
2019-05-19T11:45:20.039Z,39.14
2019-05-19T11:47:49.573Z,39.58
2019-05-19T11:50:19.462Z,40.15
2019-05-19T11:52:49.030Z,40.82
2019-05-19T11:55:18.923Z,40.29
2019-05-19T11:57:48.832Z,40.52
2019-05-19T12:00:18.446Z,39.65
2019-05-19T12:02:48.835Z,39.00
2019-05-19T12:05:19.175Z,38.93
2019-05-19T12:07:48.703Z,38.80
2019-05-19T12:10:18.241Z,38.71
2019-05-19T12:12:47.748Z,37.66
2019-05-19T12:15:17.982Z,37.58
2019-05-19T12:17:47.938Z,38.43
2019-05-19T12:20:17.500Z,38.32
2019-05-19T12:22:47.436Z,38.27
2019-05-19T12:25:17.130Z,37.43
2019-05-19T12:27:47.092Z,36.91
2019-05-19T12:30:21.514Z,36.94
2019-05-19T12:32:51.096Z,36.79
2019-05-19T12:35:21.027Z,37.08
2019-05-19T12:37:50.596Z,37.14
2019-05-19T12:40:22.618Z,35.96
2019-05-19T12:42:51.392Z,35.46
2019-05-19T12:45:21.629Z,34.50
2019-05-19T12:47:51.593Z,34.89
2019-05-19T12:50:21.364Z,35.90
2019-05-19T12:52:50.962Z,35.38
2019-05-19T12:55:24.077Z,35.62
2019-05-19T12:57:53.850Z,36.47
2019-05-19T13:00:23.526Z,36.43
2019-05-19T13:02:53.181Z,35.85
2019-05-19T13:05:22.724Z,36.37
2019-05-19T13:07:52.267Z,36.75
2019-05-19T13:10:21.721Z,35.82
2019-05-19T13:12:51.414Z,35.03
2019-05-19T13:15:21.114Z,35.25
2019-05-19T13:17:50.687Z,35.34
2019-05-19T13:20:20.296Z,35.45
2019-05-19T13:22:50.153Z,35.63
2019-05-19T13:25:19.788Z,35.31
2019-05-19T13:27:49.341Z,35.71
2019-05-19T13:30:19.193Z,35.89
2019-05-19T13:32:48.771Z,34.01
2019-05-19T13:35:18.359Z,33.89
2019-05-19T13:37:48.240Z,32.81
2019-05-19T13:40:18.416Z,33.19
2019-05-19T13:42:48.303Z,32.90
2019-05-19T13:45:18.075Z,33.15
2019-05-19T13:47:47.626Z,32.00
2019-05-19T13:50:17.368Z,32.26
2019-05-19T13:52:46.869Z,32.59
2019-05-19T13:55:16.595Z,32.40
2019-05-19T13:57:46.551Z,32.90
2019-05-19T14:00:16.077Z,32.82
2019-05-19T14:02:45.658Z,32.81
2019-05-19T14:05:15.163Z,33.04
2019-05-19T14:07:47.310Z,32.82
2019-05-19T14:10:16.940Z,32.73
2019-05-19T14:12:47.366Z,32.95
2019-05-19T14:15:16.947Z,33.04
2019-05-19T14:17:46.583Z,32.97
2019-05-19T14:20:16.500Z,32.65
2019-05-19T14:22:47.206Z,32.40
2019-05-19T14:25:16.649Z,32.41
2019-05-19T14:27:46.666Z,32.46
2019-05-19T14:30:16.468Z,33.27
2019-05-19T14:32:46.315Z,33.53
2019-05-19T14:35:15.885Z,33.67
2019-05-19T14:37:45.565Z,33.39
2019-05-19T14:40:16.015Z,33.29
2019-05-19T14:42:56.329Z,33.58
2019-05-19T14:45:25.892Z,33.09
2019-05-19T14:47:55.878Z,32.92
2019-05-19T14:50:25.413Z,32.39
2019-05-19T14:52:56.925Z,32.20
2019-05-19T14:55:27.321Z,32.71
2019-05-19T14:57:56.855Z,32.28
2019-05-19T15:00:27.002Z,32.41
2019-05-19T15:02:56.978Z,32.36
2019-05-19T15:05:26.699Z,32.39
2019-05-19T15:07:56.335Z,32.80
2019-05-19T15:10:26.308Z,33.45
2019-05-19T15:12:56.096Z,33.14
2019-05-19T15:15:25.668Z,32.88
2019-05-19T15:17:55.238Z,33.22
2019-05-19T15:20:24.975Z,33.58
2019-05-19T15:22:54.508Z,33.22
2019-05-19T15:25:24.059Z,33.14
2019-05-19T15:28:00.185Z,33.15
2019-05-19T15:30:25.616Z,33.30
2019-05-19T15:32:56.525Z,33.34
2019-05-19T15:35:26.165Z,33.27
2019-05-19T15:37:57.348Z,33.43
2019-05-19T15:40:27.655Z,34.06
2019-05-19T15:42:57.445Z,33.88
2019-05-19T15:45:27.242Z,34.10
2019-05-19T15:47:57.406Z,34.10
2019-05-19T15:50:27.321Z,34.69
2019-05-19T15:52:58.797Z,35.10
2019-05-19T15:55:28.425Z,35.30
2019-05-19T15:57:57.967Z,35.55
2019-05-19T16:00:27.406Z,35.83
2019-05-19T16:02:57.019Z,36.06
2019-05-19T16:05:26.769Z,36.05
2019-05-19T16:07:56.718Z,35.95
2019-05-19T16:10:26.269Z,36.20
2019-05-19T16:12:55.792Z,36.77
2019-05-19T16:15:25.416Z,36.61
2019-05-19T16:17:54.925Z,36.47
2019-05-19T16:20:24.417Z,36.40
2019-05-19T16:22:53.978Z,36.75
2019-05-19T16:25:23.455Z,37.13
2019-05-19T16:27:52.914Z,36.91
2019-05-19T16:30:22.612Z,36.50
2019-05-19T16:32:52.129Z,35.89
2019-05-19T16:35:22.697Z,35.79
2019-05-19T16:37:52.179Z,35.74
2019-05-19T16:40:21.819Z,35.45
2019-05-19T16:42:51.559Z,35.36
2019-05-19T16:45:21.763Z,35.59
2019-05-19T16:47:51.253Z,35.50
2019-05-19T16:50:21.004Z,34.83
2019-05-19T16:52:51.105Z,32.96
2019-05-19T16:55:25.427Z,32.53
2019-05-19T16:57:55.339Z,31.50
2019-05-19T17:00:26.913Z,30.73
2019-05-19T17:02:56.677Z,29.92
2019-05-19T17:05:26.169Z,29.49
2019-05-19T17:07:55.653Z,29.61
2019-05-19T17:10:25.278Z,29.86
2019-05-19T17:12:54.916Z,30.02
2019-05-19T17:15:24.603Z,30.90
2019-05-19T17:17:54.060Z,31.03
2019-05-19T17:20:23.729Z,30.72
2019-05-19T17:22:53.279Z,31.03
2019-05-19T17:25:23.186Z,31.56
2019-05-19T17:27:52.636Z,32.18
2019-05-19T17:30:22.288Z,32.78
2019-05-19T17:32:51.726Z,33.50
2019-05-19T17:35:21.400Z,34.19
2019-05-19T17:37:51.240Z,34.78
2019-05-19T17:40:20.886Z,35.03
2019-05-19T17:42:50.776Z,35.24
2019-05-19T17:45:20.368Z,35.42
2019-05-19T17:47:53.498Z,35.80
2019-05-19T17:50:36.115Z,36.13
2019-05-19T17:53:06.203Z,36.61
2019-05-19T17:55:35.902Z,36.92
2019-05-19T17:58:05.982Z,37.00
2019-05-19T18:00:38.708Z,37.35
2019-05-19T18:03:08.942Z,37.74
2019-05-19T18:05:38.706Z,38.28
2019-05-19T18:08:08.238Z,38.96
2019-05-19T18:10:38.095Z,39.06
2019-05-19T18:13:07.714Z,39.25
2019-05-19T18:15:37.963Z,39.31
2019-05-19T18:18:07.565Z,39.99
2019-05-19T18:20:38.158Z,40.27
2019-05-19T18:23:07.705Z,40.07
2019-05-19T18:25:37.210Z,40.16
2019-05-19T18:28:06.793Z,40.55
2019-05-19T18:30:36.572Z,40.80
2019-05-19T18:33:06.137Z,41.25
2019-05-19T18:35:35.588Z,41.69
2019-05-19T18:38:05.645Z,42.00
2019-05-19T18:40:35.525Z,42.29
2019-05-19T18:43:05.642Z,42.68
2019-05-19T18:45:35.611Z,42.78
2019-05-19T18:48:05.402Z,42.81
2019-05-19T18:50:34.883Z,43.40
2019-05-19T18:53:04.797Z,43.52
2019-05-19T18:55:34.266Z,43.97
2019-05-19T18:58:04.189Z,44.42
2019-05-19T19:00:36.489Z,44.65
2019-05-19T19:03:06.689Z,45.09
2019-05-19T19:05:36.331Z,45.47
2019-05-19T19:08:06.101Z,45.52
2019-05-19T19:10:35.982Z,45.86
2019-05-19T19:13:05.621Z,45.92
2019-05-19T19:15:35.800Z,45.98
2019-05-19T19:18:05.364Z,46.39
2019-05-19T19:20:35.669Z,46.61
2019-05-19T19:23:05.413Z,46.81
2019-05-19T19:25:34.998Z,47.05
2019-05-19T19:28:04.587Z,47.82
2019-05-19T19:30:34.132Z,48.33
2019-05-19T19:33:03.578Z,48.75
2019-05-19T19:35:39.276Z,49.08
2019-05-19T19:38:04.274Z,49.37
2019-05-19T19:40:33.812Z,49.70
2019-05-19T19:43:04.036Z,49.85
2019-05-19T19:45:33.503Z,49.96
2019-05-19T19:48:02.952Z,50.08
2019-05-19T19:50:32.861Z,50.53
2019-05-19T19:53:02.334Z,50.93
2019-05-19T19:55:32.192Z,51.04
2019-05-19T19:58:01.786Z,51.38
2019-05-19T20:00:37.597Z,51.58
2019-05-19T20:03:08.279Z,51.73
2019-05-19T20:05:38.309Z,52.01
2019-05-19T20:08:08.188Z,52.07
2019-05-19T20:10:38.030Z,52.49
2019-05-19T20:13:07.824Z,52.52
2019-05-19T20:15:38.922Z,52.75
2019-05-19T20:18:08.504Z,53.04
2019-05-19T20:20:38.114Z,53.55
2019-05-19T20:23:07.770Z,53.71
2019-05-19T20:25:37.625Z,53.70
2019-05-19T20:28:07.285Z,53.84
2019-05-19T20:30:37.178Z,54.11
2019-05-19T20:33:06.788Z,54.26
2019-05-19T20:35:36.262Z,54.54
2019-05-19T20:38:05.808Z,54.68
2019-05-19T20:40:35.267Z,54.91
2019-05-19T20:43:05.024Z,55.19
2019-05-19T20:45:35.630Z,55.58
2019-05-19T20:48:05.380Z,55.79
2019-05-19T20:50:34.854Z,56.00
2019-05-19T20:53:04.666Z,56.31
2019-05-19T20:55:34.850Z,56.59
2019-05-19T20:58:04.409Z,56.90
2019-05-19T21:00:33.886Z,57.21
2019-05-19T21:03:04.330Z,57.49
2019-05-19T21:05:33.788Z,57.81
2019-05-19T21:08:03.660Z,58.00
2019-05-19T21:10:35.123Z,58.24
2019-05-19T21:13:04.575Z,58.76
2019-05-19T21:15:34.192Z,58.87
2019-05-19T21:18:03.646Z,59.00
2019-05-19T21:20:33.275Z,59.18
2019-05-19T21:23:02.738Z,59.33
2019-05-19T21:25:32.204Z,59.61
2019-05-19T21:28:02.168Z,59.89
2019-05-19T21:30:31.702Z,60.31
2019-05-19T21:33:01.193Z,60.76
2019-05-19T21:35:30.994Z,60.78
2019-05-19T21:38:00.503Z,60.79
2019-05-19T21:40:30.470Z,61.04
2019-05-19T21:43:00.004Z,61.45
2019-05-19T21:45:29.493Z,61.46
2019-05-19T21:47:59.077Z,61.61
2019-05-19T21:50:28.630Z,61.85
2019-05-19T21:52:58.184Z,62.11
2019-05-19T21:55:27.692Z,62.39
2019-05-19T21:57:57.460Z,62.64
2019-05-19T22:00:28.778Z,63.29
2019-05-19T22:02:58.690Z,63.17
2019-05-19T22:05:28.559Z,63.34
2019-05-19T22:08:05.536Z,63.44
2019-05-19T22:10:35.137Z,64.07
2019-05-19T22:13:04.705Z,64.16
2019-05-19T22:15:34.212Z,64.24
2019-05-19T22:18:04.076Z,64.52
2019-05-19T22:20:33.570Z,64.85
2019-05-19T22:23:03.047Z,64.97
2019-05-19T22:25:32.553Z,65.10
2019-05-19T22:28:02.618Z,65.98
2019-05-19T22:30:32.120Z,66.18
2019-05-19T22:33:01.738Z,66.49
2019-05-19T22:35:31.641Z,66.63
2019-05-19T22:38:01.114Z,66.48
2019-05-19T22:40:31.121Z,66.53
2019-05-19T22:43:00.888Z,66.79
2019-05-19T22:45:30.479Z,66.97
2019-05-19T22:48:00.300Z,66.97
2019-05-19T22:50:30.109Z,67.15
2019-05-19T22:52:59.618Z,67.12
2019-05-19T22:55:29.125Z,67.09
2019-05-19T22:57:58.641Z,67.12
2019-05-19T23:00:28.335Z,67.27
2019-05-19T23:02:57.827Z,67.35
2019-05-19T23:05:27.307Z,67.48
2019-05-19T23:07:56.975Z,67.63
2019-05-19T23:10:26.886Z,67.80
2019-05-19T23:12:56.392Z,68.00
2019-05-19T23:15:25.843Z,68.18
2019-05-19T23:17:55.346Z,68.13
2019-05-19T23:20:24.882Z,68.39
2019-05-19T23:22:54.332Z,68.32
2019-05-19T23:25:23.835Z,68.58
2019-05-19T23:27:53.297Z,68.67
2019-05-19T23:30:23.023Z,68.63
2019-05-19T23:32:52.556Z,68.74
2019-05-19T23:35:22.509Z,68.85
2019-05-19T23:37:53.015Z,68.93
2019-05-19T23:40:22.465Z,68.99
2019-05-19T23:42:51.980Z,69.19
2019-05-19T23:45:21.820Z,69.19
2019-05-19T23:47:51.321Z,69.30
2019-05-19T23:50:20.851Z,69.36
2019-05-19T23:52:50.357Z,69.42
2019-05-19T23:55:19.813Z,69.58
2019-05-19T23:57:49.328Z,69.63
